sensor_id;sensor_type;location;lat;lon;timestamp;P1;durP1;ratioP1;P2;durP2;ratioP2
44508;SDS011;30214;52.246;14.408;2022-08-18T00:00:28;8.10;;;7.30;;
44508;SDS011;30214;52.246;14.408;2022-08-18T00:02:55;9.48;;;7.55;;
44508;SDS011;30214;52.246;14.408;2022-08-18T00:05:31;10.25;;;7.38;;
44508;SDS011;30214;52.246;14.408;2022-08-18T00:07:59;10.18;;;7.97;;
44508;SDS011;30214;52.246;14.408;2022-08-18T00:10:27;9.32;;;7.25;;
44508;SDS011;30214;52.246;14.408;2022-08-18T00:12:54;10.38;;;8.30;;
44508;SDS011;30214;52.246;14.408;2022-08-18T00:15:23;9.07;;;7.82;;
44508;SDS011;30214;52.246;14.408;2022-08-18T00:17:50;10.77;;;7.80;;
44508;SDS011;30214;52.246;14.408;2022-08-18T00:20:19;11.20;;;7.95;;
44508;SDS011;30214;52.246;14.408;2022-08-18T00:22:48;11.00;;;8.15;;
44508;SDS011;30214;52.246;14.408;2022-08-18T00:25:20;9.73;;;8.13;;
44508;SDS011;30214;52.246;14.408;2022-08-18T00:27:48;11.32;;;8.35;;
44508;SDS011;30214;52.246;14.408;2022-08-18T00:30:17;9.90;;;8.90;;
44508;SDS011;30214;52.246;14.408;2022-08-18T00:32:48;10.02;;;8.75;;
44508;SDS011;30214;52.246;14.408;2022-08-18T00:35:19;14.55;;;8.85;;
44508;SDS011;30214;52.246;14.408;2022-08-18T00:37:51;12.15;;;8.45;;
44508;SDS011;30214;52.246;14.408;2022-08-18T00:40:20;11.98;;;8.93;;
44508;SDS011;30214;52.246;14.408;2022-08-18T00:42:53;9.80;;;8.80;;
44508;SDS011;30214;52.246;14.408;2022-08-18T00:45:24;10.68;;;9.25;;
44508;SDS011;30214;52.246;14.408;2022-08-18T00:47:58;9.85;;;8.85;;
44508;SDS011;30214;52.246;14.408;2022-08-18T00:50:27;11.77;;;9.77;;
44508;SDS011;30214;52.246;14.408;2022-08-18T00:52:59;10.75;;;9.38;;
44508;SDS011;30214;52.246;14.408;2022-08-18T00:55:30;12.57;;;9.32;;
44508;SDS011;30214;52.246;14.408;2022-08-18T00:58:02;10.43;;;9.02;;
44508;SDS011;30214;52.246;14.408;2022-08-18T01:00:34;11.40;;;9.43;;
44508;SDS011;30214;52.246;14.408;2022-08-18T01:03:04;11.45;;;9.80;;
44508;SDS011;30214;52.246;14.408;2022-08-18T01:05:38;13.80;;;9.35;;
44508;SDS011;30214;52.246;14.408;2022-08-18T01:08:11;11.07;;;9.20;;
44508;SDS011;30214;52.246;14.408;2022-08-18T01:10:39;11.82;;;9.88;;
44508;SDS011;30214;52.246;14.408;2022-08-18T01:13:07;10.40;;;9.30;;
44508;SDS011;30214;52.246;14.408;2022-08-18T01:15:35;11.93;;;9.45;;
44508;SDS011;30214;52.246;14.408;2022-08-18T01:18:05;10.30;;;9.30;;
44508;SDS011;30214;52.246;14.408;2022-08-18T01:20:55;10.30;;;8.95;;
44508;SDS011;30214;52.246;14.408;2022-08-18T01:23:56;12.32;;;9.30;;
44508;SDS011;30214;52.246;14.408;2022-08-18T01:26:25;11.68;;;9.40;;
44508;SDS011;30214;52.246;14.408;2022-08-18T01:28:52;12.20;;;9.43;;
44508;SDS011;30214;52.246;14.408;2022-08-18T01:31:30;10.45;;;9.35;;
44508;SDS011;30214;52.246;14.408;2022-08-18T01:34:02;10.98;;;8.73;;
44508;SDS011;30214;52.246;14.408;2022-08-18T01:36:30;11.55;;;7.93;;
44508;SDS011;30214;52.246;14.408;2022-08-18T01:39:03;10.82;;;8.55;;
44508;SDS011;30214;52.246;14.408;2022-08-18T01:41:33;12.93;;;9.05;;
44508;SDS011;30214;52.246;14.408;2022-08-18T01:44:01;12.35;;;9.07;;
44508;SDS011;30214;52.246;14.408;2022-08-18T01:46:30;11.93;;;9.43;;
44508;SDS011;30214;52.246;14.408;2022-08-18T01:48:59;14.77;;;9.75;;
44508;SDS011;30214;52.246;14.408;2022-08-18T01:51:28;10.68;;;9.57;;
44508;SDS011;30214;52.246;14.408;2022-08-18T01:53:57;11.15;;;9.98;;
44508;SDS011;30214;52.246;14.408;2022-08-18T01:56:26;13.20;;;9.88;;
44508;SDS011;30214;52.246;14.408;2022-08-18T01:58:53;14.43;;;9.93;;
44508;SDS011;30214;52.246;14.408;2022-08-18T02:01:21;10.40;;;9.27;;
44508;SDS011;30214;52.246;14.408;2022-08-18T02:03:52;11.75;;;9.75;;
44508;SDS011;30214;52.246;14.408;2022-08-18T02:06:24;13.60;;;10.23;;
44508;SDS011;30214;52.246;14.408;2022-08-18T02:08:52;14.60;;;10.38;;
44508;SDS011;30214;52.246;14.408;2022-08-18T02:11:19;12.00;;;9.60;;
44508;SDS011;30214;52.246;14.408;2022-08-18T02:13:47;10.73;;;9.55;;
44508;SDS011;30214;52.246;14.408;2022-08-18T02:16:14;11.05;;;9.75;;
44508;SDS011;30214;52.246;14.408;2022-08-18T02:18:42;18.17;;;10.15;;
44508;SDS011;30214;52.246;14.408;2022-08-18T02:21:09;10.40;;;9.40;;
44508;SDS011;30214;52.246;14.408;2022-08-18T02:23:41;12.20;;;9.55;;
44508;SDS011;30214;52.246;14.408;2022-08-18T02:26:11;11.80;;;9.30;;
44508;SDS011;30214;52.246;14.408;2022-08-18T02:28:41;11.00;;;9.68;;
44508;SDS011;30214;52.246;14.408;2022-08-18T02:31:10;11.32;;;9.68;;
44508;SDS011;30214;52.246;14.408;2022-08-18T02:33:41;11.68;;;10.30;;
44508;SDS011;30214;52.246;14.408;2022-08-18T02:36:09;12.30;;;10.02;;
44508;SDS011;30214;52.246;14.408;2022-08-18T02:38:37;11.57;;;10.35;;
44508;SDS011;30214;52.246;14.408;2022-08-18T02:41:05;12.63;;;9.02;;
44508;SDS011;30214;52.246;14.408;2022-08-18T02:43:35;11.77;;;10.35;;
44508;SDS011;30214;52.246;14.408;2022-08-18T02:46:03;12.30;;;10.48;;
44508;SDS011;30214;52.246;14.408;2022-08-18T02:48:33;13.07;;;9.52;;
44508;SDS011;30214;52.246;14.408;2022-08-18T02:51:01;9.70;;;8.70;;
44508;SDS011;30214;52.246;14.408;2022-08-18T02:53:29;10.68;;;9.20;;
44508;SDS011;30214;52.246;14.408;2022-08-18T02:56:03;11.63;;;10.38;;
44508;SDS011;30214;52.246;14.408;2022-08-18T02:58:47;12.07;;;9.75;;
44508;SDS011;30214;52.246;14.408;2022-08-18T03:01:17;11.73;;;10.52;;
44508;SDS011;30214;52.246;14.408;2022-08-18T03:03:47;14.85;;;10.95;;
44508;SDS011;30214;52.246;14.408;2022-08-18T03:06:15;14.68;;;11.40;;
44508;SDS011;30214;52.246;14.408;2022-08-18T03:08:43;15.48;;;11.20;;
44508;SDS011;30214;52.246;14.408;2022-08-18T03:11:13;12.43;;;11.10;;
44508;SDS011;30214;52.246;14.408;2022-08-18T03:13:41;11.43;;;10.05;;
44508;SDS011;30214;52.246;14.408;2022-08-18T03:16:08;11.82;;;10.55;;
44508;SDS011;30214;52.246;14.408;2022-08-18T03:18:35;13.38;;;11.35;;
44508;SDS011;30214;52.246;14.408;2022-08-18T03:21:05;14.73;;;11.07;;
44508;SDS011;30214;52.246;14.408;2022-08-18T03:23:35;13.02;;;11.60;;
44508;SDS011;30214;52.246;14.408;2022-08-18T03:26:04;16.73;;;10.55;;
44508;SDS011;30214;52.246;14.408;2022-08-18T03:28:33;12.18;;;10.85;;
44508;SDS011;30214;52.246;14.408;2022-08-18T03:31:00;12.35;;;10.32;;
44508;SDS011;30214;52.246;14.408;2022-08-18T03:33:27;11.73;;;10.52;;
44508;SDS011;30214;52.246;14.408;2022-08-18T03:35:55;16.20;;;11.20;;
44508;SDS011;30214;52.246;14.408;2022-08-18T03:38:23;14.07;;;12.07;;
44508;SDS011;30214;52.246;14.408;2022-08-18T03:40:51;13.80;;;12.38;;
44508;SDS011;30214;52.246;14.408;2022-08-18T03:43:18;16.50;;;12.73;;
44508;SDS011;30214;52.246;14.408;2022-08-18T03:45:45;19.30;;;12.88;;
44508;SDS011;30214;52.246;14.408;2022-08-18T03:48:12;18.25;;;13.43;;
44508;SDS011;30214;52.246;14.408;2022-08-18T03:50:40;22.58;;;13.75;;
44508;SDS011;30214;52.246;14.408;2022-08-18T03:53:09;19.63;;;13.27;;
44508;SDS011;30214;52.246;14.408;2022-08-18T03:55:40;17.30;;;13.65;;
44508;SDS011;30214;52.246;14.408;2022-08-18T03:58:07;19.88;;;13.13;;
44508;SDS011;30214;52.246;14.408;2022-08-18T04:00:38;16.83;;;13.40;;
44508;SDS011;30214;52.246;14.408;2022-08-18T04:03:06;14.85;;;13.35;;
44508;SDS011;30214;52.246;14.408;2022-08-18T04:05:37;14.13;;;12.75;;
44508;SDS011;30214;52.246;14.408;2022-08-18T04:08:05;14.57;;;12.98;;
44508;SDS011;30214;52.246;14.408;2022-08-18T04:10:32;17.02;;;13.55;;
44508;SDS011;30214;52.246;14.408;2022-08-18T04:13:02;14.68;;;13.00;;
44508;SDS011;30214;52.246;14.408;2022-08-18T04:15:30;19.15;;;14.00;;
44508;SDS011;30214;52.246;14.408;2022-08-18T04:17:58;15.45;;;13.85;;
44508;SDS011;30214;52.246;14.408;2022-08-18T04:20:28;20.27;;;13.90;;
44508;SDS011;30214;52.246;14.408;2022-08-18T04:22:56;16.10;;;13.25;;
44508;SDS011;30214;52.246;14.408;2022-08-18T04:25:23;17.42;;;12.65;;
44508;SDS011;30214;52.246;14.408;2022-08-18T04:27:51;19.15;;;13.90;;
44508;SDS011;30214;52.246;14.408;2022-08-18T04:30:23;14.38;;;12.70;;
44508;SDS011;30214;52.246;14.408;2022-08-18T04:32:50;15.98;;;12.60;;
44508;SDS011;30214;52.246;14.408;2022-08-18T04:35:17;17.13;;;12.40;;
44508;SDS011;30214;52.246;14.408;2022-08-18T04:37:46;17.00;;;12.60;;
44508;SDS011;30214;52.246;14.408;2022-08-18T04:40:13;14.05;;;12.35;;
44508;SDS011;30214;52.246;14.408;2022-08-18T04:42:40;13.63;;;11.88;;
44508;SDS011;30214;52.246;14.408;2022-08-18T04:45:09;17.42;;;13.23;;
44508;SDS011;30214;52.246;14.408;2022-08-18T04:47:38;14.20;;;11.85;;
44508;SDS011;30214;52.246;14.408;2022-08-18T04:50:07;14.18;;;12.65;;
44508;SDS011;30214;52.246;14.408;2022-08-18T04:52:35;17.33;;;12.70;;
44508;SDS011;30214;52.246;14.408;2022-08-18T04:55:20;14.52;;;11.68;;
44508;SDS011;30214;52.246;14.408;2022-08-18T04:57:47;19.40;;;12.40;;
44508;SDS011;30214;52.246;14.408;2022-08-18T05:00:14;14.40;;;11.18;;
44508;SDS011;30214;52.246;14.408;2022-08-18T05:02:45;16.10;;;12.65;;
44508;SDS011;30214;52.246;14.408;2022-08-18T05:05:12;13.88;;;12.00;;
44508;SDS011;30214;52.246;14.408;2022-08-18T05:07:43;14.80;;;12.90;;
44508;SDS011;30214;52.246;14.408;2022-08-18T05:10:12;17.63;;;12.48;;
44508;SDS011;30214;52.246;14.408;2022-08-18T05:12:41;15.65;;;12.77;;
44508;SDS011;30214;52.246;14.408;2022-08-18T05:15:12;19.00;;;13.32;;
44508;SDS011;30214;52.246;14.408;2022-08-18T05:17:39;24.00;;;11.95;;
44508;SDS011;30214;52.246;14.408;2022-08-18T05:20:08;17.35;;;11.63;;
44508;SDS011;30214;52.246;14.408;2022-08-18T05:22:36;19.67;;;11.18;;
44508;SDS011;30214;52.246;14.408;2022-08-18T05:25:05;16.05;;;11.10;;
44508;SDS011;30214;52.246;14.408;2022-08-18T05:27:35;19.25;;;11.23;;
44508;SDS011;30214;52.246;14.408;2022-08-18T05:30:05;16.85;;;10.73;;
44508;SDS011;30214;52.246;14.408;2022-08-18T05:32:34;21.65;;;11.38;;
44508;SDS011;30214;52.246;14.408;2022-08-18T05:35:10;19.42;;;11.15;;
44508;SDS011;30214;52.246;14.408;2022-08-18T05:37:43;19.92;;;11.45;;
44508;SDS011;30214;52.246;14.408;2022-08-18T05:40:22;18.90;;;10.80;;
44508;SDS011;30214;52.246;14.408;2022-08-18T05:42:50;24.52;;;11.93;;
44508;SDS011;30214;52.246;14.408;2022-08-18T05:45:17;19.52;;;10.30;;
44508;SDS011;30214;52.246;14.408;2022-08-18T05:47:45;17.27;;;10.57;;
44508;SDS011;30214;52.246;14.408;2022-08-18T05:50:15;18.30;;;10.77;;
44508;SDS011;30214;52.246;14.408;2022-08-18T05:52:47;20.48;;;10.30;;
44508;SDS011;30214;52.246;14.408;2022-08-18T05:55:20;19.52;;;11.02;;
44508;SDS011;30214;52.246;14.408;2022-08-18T05:58:11;20.75;;;10.27;;
44508;SDS011;30214;52.246;14.408;2022-08-18T06:00:46;19.25;;;11.13;;
44508;SDS011;30214;52.246;14.408;2022-08-18T06:03:19;22.70;;;10.63;;
44508;SDS011;30214;52.246;14.408;2022-08-18T06:05:53;24.70;;;9.77;;
44508;SDS011;30214;52.246;14.408;2022-08-18T06:08:27;17.00;;;10.30;;
44508;SDS011;30214;52.246;14.408;2022-08-18T06:11:00;16.25;;;10.77;;
44508;SDS011;30214;52.246;14.408;2022-08-18T06:13:31;13.75;;;10.05;;
44508;SDS011;30214;52.246;14.408;2022-08-18T06:16:08;19.10;;;10.68;;
44508;SDS011;30214;52.246;14.408;2022-08-18T06:18:44;17.67;;;10.48;;
44508;SDS011;30214;52.246;14.408;2022-08-18T06:21:23;14.65;;;10.70;;
44508;SDS011;30214;52.246;14.408;2022-08-18T06:24:04;18.85;;;10.50;;
44508;SDS011;30214;52.246;14.408;2022-08-18T06:26:39;14.80;;;10.07;;
44508;SDS011;30214;52.246;14.408;2022-08-18T06:29:17;16.20;;;9.43;;
44508;SDS011;30214;52.246;14.408;2022-08-18T06:32:06;17.20;;;11.57;;
44508;SDS011;30214;52.246;14.408;2022-08-18T06:34:51;18.10;;;10.05;;
44508;SDS011;30214;52.246;14.408;2022-08-18T06:37:35;16.25;;;9.98;;
44508;SDS011;30214;52.246;14.408;2022-08-18T06:40:40;16.75;;;9.95;;
44508;SDS011;30214;52.246;14.408;2022-08-18T06:43:11;20.30;;;9.90;;
44508;SDS011;30214;52.246;14.408;2022-08-18T06:45:41;18.17;;;9.60;;
44508;SDS011;30214;52.246;14.408;2022-08-18T06:48:18;20.30;;;9.90;;
44508;SDS011;30214;52.246;14.408;2022-08-18T06:50:55;18.02;;;9.80;;
44508;SDS011;30214;52.246;14.408;2022-08-18T06:56:27;15.10;;;9.52;;
44508;SDS011;30214;52.246;14.408;2022-08-18T06:59:15;16.95;;;9.55;;
44508;SDS011;30214;52.246;14.408;2022-08-18T07:01:50;18.10;;;10.07;;
44508;SDS011;30214;52.246;14.408;2022-08-18T07:04:30;17.92;;;9.80;;
44508;SDS011;30214;52.246;14.408;2022-08-18T07:07:16;17.80;;;10.15;;
44508;SDS011;30214;52.246;14.408;2022-08-18T07:09:56;19.83;;;9.93;;
44508;SDS011;30214;52.246;14.408;2022-08-18T07:12:25;13.90;;;9.77;;
44508;SDS011;30214;52.246;14.408;2022-08-18T07:14:55;17.50;;;10.00;;
44508;SDS011;30214;52.246;14.408;2022-08-18T07:17:26;16.90;;;10.57;;
44508;SDS011;30214;52.246;14.408;2022-08-18T07:20:03;17.35;;;9.93;;
44508;SDS011;30214;52.246;14.408;2022-08-18T07:25:20;20.42;;;10.00;;
44508;SDS011;30214;52.246;14.408;2022-08-18T07:27:52;13.30;;;10.25;;
44508;SDS011;30214;52.246;14.408;2022-08-18T07:30:26;16.23;;;9.80;;
44508;SDS011;30214;52.246;14.408;2022-08-18T07:32:59;18.75;;;10.02;;
44508;SDS011;30214;52.246;14.408;2022-08-18T07:35:37;16.08;;;9.88;;
44508;SDS011;30214;52.246;14.408;2022-08-18T07:38:12;14.55;;;9.45;;
44508;SDS011;30214;52.246;14.408;2022-08-18T07:40:47;20.73;;;10.80;;
44508;SDS011;30214;52.246;14.408;2022-08-18T07:43:22;18.00;;;9.57;;
44508;SDS011;30214;52.246;14.408;2022-08-18T07:46:06;15.60;;;9.23;;
44508;SDS011;30214;52.246;14.408;2022-08-18T07:48:41;13.18;;;9.35;;
44508;SDS011;30214;52.246;14.408;2022-08-18T07:51:11;16.67;;;9.52;;
44508;SDS011;30214;52.246;14.408;2022-08-18T07:53:49;14.93;;;9.50;;
44508;SDS011;30214;52.246;14.408;2022-08-18T07:56:27;16.35;;;9.35;;
44508;SDS011;30214;52.246;14.408;2022-08-18T07:59:07;14.32;;;8.77;;
44508;SDS011;30214;52.246;14.408;2022-08-18T08:01:43;13.88;;;9.07;;
44508;SDS011;30214;52.246;14.408;2022-08-18T08:04:23;15.15;;;9.52;;
44508;SDS011;30214;52.246;14.408;2022-08-18T08:07:04;14.82;;;8.80;;
44508;SDS011;30214;52.246;14.408;2022-08-18T08:09:39;17.67;;;9.45;;
44508;SDS011;30214;52.246;14.408;2022-08-18T08:12:18;15.55;;;9.07;;
44508;SDS011;30214;52.246;14.408;2022-08-18T08:14:59;15.75;;;9.15;;
44508;SDS011;30214;52.246;14.408;2022-08-18T08:17:38;12.48;;;8.43;;
44508;SDS011;30214;52.246;14.408;2022-08-18T08:20:20;19.33;;;10.70;;
44508;SDS011;30214;52.246;14.408;2022-08-18T08:22:59;13.95;;;7.93;;
44508;SDS011;30214;52.246;14.408;2022-08-18T08:25:41;12.32;;;7.70;;
44508;SDS011;30214;52.246;14.408;2022-08-18T08:28:23;12.50;;;7.13;;
44508;SDS011;30214;52.246;14.408;2022-08-18T08:31:06;12.27;;;7.57;;
44508;SDS011;30214;52.246;14.408;2022-08-18T08:36:09;9.23;;;6.32;;
44508;SDS011;30214;52.246;14.408;2022-08-18T08:38:45;8.93;;;6.53;;
44508;SDS011;30214;52.246;14.408;2022-08-18T08:41:18;9.70;;;6.90;;
44508;SDS011;30214;52.246;14.408;2022-08-18T08:43:59;9.60;;;5.85;;
44508;SDS011;30214;52.246;14.408;2022-08-18T08:46:33;7.88;;;6.70;;
44508;SDS011;30214;52.246;14.408;2022-08-18T08:49:08;9.73;;;5.88;;
44508;SDS011;30214;52.246;14.408;2022-08-18T08:51:49;9.93;;;4.78;;
44508;SDS011;30214;52.246;14.408;2022-08-18T08:54:22;7.18;;;4.88;;
44508;SDS011;30214;52.246;14.408;2022-08-18T08:56:53;6.47;;;4.18;;
44508;SDS011;30214;52.246;14.408;2022-08-18T08:59:25;12.15;;;4.95;;
44508;SDS011;30214;52.246;14.408;2022-08-18T09:01:54;9.45;;;4.75;;
44508;SDS011;30214;52.246;14.408;2022-08-18T09:04:40;9.90;;;4.38;;
44508;SDS011;30214;52.246;14.408;2022-08-18T09:07:37;8.60;;;3.80;;
44508;SDS011;30214;52.246;14.408;2022-08-18T09:10:36;6.45;;;4.10;;
44508;SDS011;30214;52.246;14.408;2022-08-18T09:13:50;7.40;;;3.97;;
44508;SDS011;30214;52.246;14.408;2022-08-18T09:16:40;7.72;;;4.63;;
44508;SDS011;30214;52.246;14.408;2022-08-18T09:19:38;6.22;;;4.15;;
44508;SDS011;30214;52.246;14.408;2022-08-18T09:22:27;7.30;;;3.70;;
44508;SDS011;30214;52.246;14.408;2022-08-18T09:25:08;6.70;;;4.10;;
44508;SDS011;30214;52.246;14.408;2022-08-18T09:27:40;5.95;;;4.43;;
44508;SDS011;30214;52.246;14.408;2022-08-18T09:33:18;8.32;;;3.90;;
44508;SDS011;30214;52.246;14.408;2022-08-18T09:36:00;6.47;;;4.20;;
44508;SDS011;30214;52.246;14.408;2022-08-18T09:38:51;4.65;;;4.00;;
44508;SDS011;30214;52.246;14.408;2022-08-18T09:41:44;6.97;;;4.60;;
44508;SDS011;30214;52.246;14.408;2022-08-18T09:50:52;6.65;;;4.60;;
44508;SDS011;30214;52.246;14.408;2022-08-18T09:59:51;6.63;;;4.40;;
44508;SDS011;30214;52.246;14.408;2022-08-18T10:05:40;4.50;;;3.90;;
44508;SDS011;30214;52.246;14.408;2022-08-18T10:08:48;5.65;;;3.67;;
44508;SDS011;30214;52.246;14.408;2022-08-18T10:12:07;7.15;;;4.10;;
44508;SDS011;30214;52.246;14.408;2022-08-18T10:15:00;7.05;;;4.05;;
44508;SDS011;30214;52.246;14.408;2022-08-18T10:17:55;7.30;;;4.22;;
44508;SDS011;30214;52.246;14.408;2022-08-18T10:20:38;6.03;;;4.47;;
44508;SDS011;30214;52.246;14.408;2022-08-18T10:29:44;8.17;;;3.90;;
44508;SDS011;30214;52.246;14.408;2022-08-18T10:41:22;4.45;;;3.60;;
44508;SDS011;30214;52.246;14.408;2022-08-18T10:43:53;6.90;;;3.80;;
44508;SDS011;30214;52.246;14.408;2022-08-18T10:46:21;8.02;;;3.85;;
44508;SDS011;30214;52.246;14.408;2022-08-18T10:49:01;7.45;;;4.85;;
44508;SDS011;30214;52.246;14.408;2022-08-18T10:51:48;7.05;;;5.07;;
44508;SDS011;30214;52.246;14.408;2022-08-18T10:54:54;8.45;;;4.55;;
44508;SDS011;30214;52.246;14.408;2022-08-18T11:01:02;8.60;;;4.50;;
44508;SDS011;30214;52.246;14.408;2022-08-18T11:04:00;5.70;;;4.00;;
44508;SDS011;30214;52.246;14.408;2022-08-18T11:06:37;8.80;;;4.85;;
44508;SDS011;30214;52.246;14.408;2022-08-18T11:09:07;10.50;;;4.82;;
44508;SDS011;30214;52.246;14.408;2022-08-18T11:11:38;6.70;;;4.57;;
44508;SDS011;30214;52.246;14.408;2022-08-18T11:14:14;8.40;;;4.65;;
44508;SDS011;30214;52.246;14.408;2022-08-18T11:17:16;6.78;;;4.43;;
44508;SDS011;30214;52.246;14.408;2022-08-18T11:19:55;11.18;;;5.10;;
44508;SDS011;30214;52.246;14.408;2022-08-18T11:22:26;11.43;;;4.65;;
44508;SDS011;30214;52.246;14.408;2022-08-18T11:24:56;8.65;;;5.10;;
44508;SDS011;30214;52.246;14.408;2022-08-18T11:27:26;7.22;;;4.63;;
44508;SDS011;30214;52.246;14.408;2022-08-18T11:29:57;9.52;;;4.78;;
44508;SDS011;30214;52.246;14.408;2022-08-18T11:32:27;8.07;;;4.95;;
44508;SDS011;30214;52.246;14.408;2022-08-18T11:34:59;9.35;;;5.13;;
44508;SDS011;30214;52.246;14.408;2022-08-18T11:37:33;7.22;;;5.20;;
44508;SDS011;30214;52.246;14.408;2022-08-18T11:40:10;6.85;;;4.90;;
44508;SDS011;30214;52.246;14.408;2022-08-18T11:43:01;7.95;;;4.53;;
44508;SDS011;30214;52.246;14.408;2022-08-18T11:45:32;9.20;;;4.90;;
44508;SDS011;30214;52.246;14.408;2022-08-18T11:48:08;11.98;;;5.28;;
44508;SDS011;30214;52.246;14.408;2022-08-18T11:50:44;7.53;;;4.72;;
44508;SDS011;30214;52.246;14.408;2022-08-18T11:53:20;7.28;;;4.38;;
44508;SDS011;30214;52.246;14.408;2022-08-18T11:56:04;7.10;;;4.22;;
44508;SDS011;30214;52.246;14.408;2022-08-18T11:58:44;10.85;;;4.80;;
44508;SDS011;30214;52.246;14.408;2022-08-18T12:01:33;6.75;;;4.72;;
44508;SDS011;30214;52.246;14.408;2022-08-18T12:04:15;7.97;;;4.40;;
44508;SDS011;30214;52.246;14.408;2022-08-18T12:07:03;5.15;;;4.28;;
44508;SDS011;30214;52.246;14.408;2022-08-18T12:09:36;6.07;;;4.30;;
44508;SDS011;30214;52.246;14.408;2022-08-18T12:12:13;8.07;;;4.35;;
44508;SDS011;30214;52.246;14.408;2022-08-18T12:14:51;7.63;;;4.30;;
44508;SDS011;30214;52.246;14.408;2022-08-18T12:17:22;6.20;;;3.67;;
44508;SDS011;30214;52.246;14.408;2022-08-18T12:19:49;6.22;;;3.88;;
44508;SDS011;30214;52.246;14.408;2022-08-18T12:22:18;5.47;;;3.80;;
44508;SDS011;30214;52.246;14.408;2022-08-18T12:24:47;4.68;;;3.80;;
44508;SDS011;30214;52.246;14.408;2022-08-18T12:27:16;7.43;;;3.83;;
44508;SDS011;30214;52.246;14.408;2022-08-18T12:29:51;4.82;;;3.80;;
44508;SDS011;30214;52.246;14.408;2022-08-18T12:32:22;5.70;;;4.20;;
44508;SDS011;30214;52.246;14.408;2022-08-18T12:34:52;5.80;;;3.90;;
44508;SDS011;30214;52.246;14.408;2022-08-18T12:37:20;6.95;;;4.70;;
44508;SDS011;30214;52.246;14.408;2022-08-18T12:39:50;10.13;;;4.50;;
44508;SDS011;30214;52.246;14.408;2022-08-18T12:42:18;5.25;;;4.50;;
44508;SDS011;30214;52.246;14.408;2022-08-18T12:44:46;6.68;;;4.82;;
44508;SDS011;30214;52.246;14.408;2022-08-18T12:47:15;6.60;;;5.00;;
44508;SDS011;30214;52.246;14.408;2022-08-18T12:49:46;8.90;;;4.60;;
44508;SDS011;30214;52.246;14.408;2022-08-18T12:52:14;7.82;;;4.75;;
44508;SDS011;30214;52.246;14.408;2022-08-18T12:54:41;6.78;;;4.78;;
44508;SDS011;30214;52.246;14.408;2022-08-18T12:57:12;9.15;;;4.45;;
44508;SDS011;30214;52.246;14.408;2022-08-18T12:59:49;9.95;;;4.63;;
44508;SDS011;30214;52.246;14.408;2022-08-18T13:02:18;6.07;;;4.95;;
44508;SDS011;30214;52.246;14.408;2022-08-18T13:04:46;7.47;;;5.10;;
44508;SDS011;30214;52.246;14.408;2022-08-18T13:07:13;5.78;;;4.68;;
44508;SDS011;30214;52.246;14.408;2022-08-18T13:09:41;9.30;;;4.47;;
44508;SDS011;30214;52.246;14.408;2022-08-18T13:12:09;7.90;;;4.90;;
44508;SDS011;30214;52.246;14.408;2022-08-18T13:14:36;8.20;;;4.82;;
44508;SDS011;30214;52.246;14.408;2022-08-18T13:17:03;8.13;;;4.80;;
44508;SDS011;30214;52.246;14.408;2022-08-18T13:19:32;5.60;;;4.65;;
44508;SDS011;30214;52.246;14.408;2022-08-18T13:22:00;5.82;;;4.63;;
44508;SDS011;30214;52.246;14.408;2022-08-18T13:24:28;9.27;;;4.95;;
44508;SDS011;30214;52.246;14.408;2022-08-18T13:26:55;9.23;;;5.03;;
44508;SDS011;30214;52.246;14.408;2022-08-18T13:29:22;6.90;;;4.45;;
44508;SDS011;30214;52.246;14.408;2022-08-18T13:31:50;7.43;;;5.03;;
44508;SDS011;30214;52.246;14.408;2022-08-18T13:34:22;8.60;;;4.88;;
44508;SDS011;30214;52.246;14.408;2022-08-18T13:36:54;9.93;;;4.80;;
44508;SDS011;30214;52.246;14.408;2022-08-18T13:39:22;8.63;;;4.72;;
44508;SDS011;30214;52.246;14.408;2022-08-18T13:41:52;9.23;;;4.45;;
44508;SDS011;30214;52.246;14.408;2022-08-18T13:44:21;6.68;;;4.70;;
44508;SDS011;30214;52.246;14.408;2022-08-18T13:46:49;6.97;;;5.10;;
44508;SDS011;30214;52.246;14.408;2022-08-18T13:49:20;7.25;;;4.60;;
44508;SDS011;30214;52.246;14.408;2022-08-18T13:51:50;9.43;;;4.82;;
44508;SDS011;30214;52.246;14.408;2022-08-18T13:54:24;6.47;;;5.00;;
44508;SDS011;30214;52.246;14.408;2022-08-18T13:56:56;8.20;;;5.15;;
44508;SDS011;30214;52.246;14.408;2022-08-18T13:59:26;6.32;;;5.00;;
44508;SDS011;30214;52.246;14.408;2022-08-18T14:01:56;11.85;;;4.68;;
44508;SDS011;30214;52.246;14.408;2022-08-18T14:04:25;7.07;;;4.60;;
44508;SDS011;30214;52.246;14.408;2022-08-18T14:06:53;5.47;;;4.20;;
44508;SDS011;30214;52.246;14.408;2022-08-18T14:09:22;6.85;;;4.82;;
44508;SDS011;30214;52.246;14.408;2022-08-18T14:11:50;5.15;;;4.32;;
44508;SDS011;30214;52.246;14.408;2022-08-18T14:14:17;7.57;;;4.20;;
44508;SDS011;30214;52.246;14.408;2022-08-18T14:16:45;6.22;;;4.30;;
44508;SDS011;30214;52.246;14.408;2022-08-18T14:19:12;5.65;;;4.43;;
44508;SDS011;30214;52.246;14.408;2022-08-18T14:21:59;8.30;;;5.03;;
44508;SDS011;30214;52.246;14.408;2022-08-18T14:24:43;7.43;;;4.72;;
44508;SDS011;30214;52.246;14.408;2022-08-18T14:27:28;7.50;;;4.53;;
44508;SDS011;30214;52.246;14.408;2022-08-18T14:29:58;7.70;;;4.50;;
44508;SDS011;30214;52.246;14.408;2022-08-18T14:32:25;5.80;;;4.45;;
44508;SDS011;30214;52.246;14.408;2022-08-18T14:34:54;7.95;;;4.65;;
44508;SDS011;30214;52.246;14.408;2022-08-18T14:37:24;8.93;;;3.95;;
44508;SDS011;30214;52.246;14.408;2022-08-18T14:39:51;4.93;;;4.28;;
44508;SDS011;30214;52.246;14.408;2022-08-18T14:42:19;6.05;;;4.18;;
44508;SDS011;30214;52.246;14.408;2022-08-18T14:44:47;7.20;;;4.38;;
44508;SDS011;30214;52.246;14.408;2022-08-18T14:47:14;6.40;;;4.32;;
44508;SDS011;30214;52.246;14.408;2022-08-18T14:49:41;6.10;;;4.03;;
44508;SDS011;30214;52.246;14.408;2022-08-18T14:52:10;7.10;;;4.32;;
44508;SDS011;30214;52.246;14.408;2022-08-18T14:54:39;7.13;;;4.38;;
44508;SDS011;30214;52.246;14.408;2022-08-18T14:57:07;10.20;;;4.43;;
44508;SDS011;30214;52.246;14.408;2022-08-18T14:59:35;9.02;;;4.88;;
44508;SDS011;30214;52.246;14.408;2022-08-18T15:02:04;5.97;;;4.93;;
44508;SDS011;30214;52.246;14.408;2022-08-18T15:04:32;7.72;;;5.15;;
44508;SDS011;30214;52.246;14.408;2022-08-18T15:07:00;7.07;;;5.20;;
44508;SDS011;30214;52.246;14.408;2022-08-18T15:09:28;6.05;;;4.80;;
44508;SDS011;30214;52.246;14.408;2022-08-18T15:11:57;7.13;;;5.30;;
44508;SDS011;30214;52.246;14.408;2022-08-18T15:14:25;8.48;;;5.47;;
44508;SDS011;30214;52.246;14.408;2022-08-18T15:16:56;10.73;;;5.80;;
44508;SDS011;30214;52.246;14.408;2022-08-18T15:19:24;9.60;;;5.63;;
44508;SDS011;30214;52.246;14.408;2022-08-18T15:21:51;9.88;;;5.70;;
44508;SDS011;30214;52.246;14.408;2022-08-18T15:24:38;7.47;;;5.60;;
44508;SDS011;30214;52.246;14.408;2022-08-18T15:27:30;9.07;;;5.80;;
44508;SDS011;30214;52.246;14.408;2022-08-18T15:30:00;8.15;;;5.95;;
44508;SDS011;30214;52.246;14.408;2022-08-18T15:32:30;9.05;;;5.88;;
44508;SDS011;30214;52.246;14.408;2022-08-18T15:34:57;8.02;;;5.90;;
44508;SDS011;30214;52.246;14.408;2022-08-18T15:37:25;13.00;;;6.03;;
44508;SDS011;30214;52.246;14.408;2022-08-18T15:40:00;10.10;;;5.53;;
44508;SDS011;30214;52.246;14.408;2022-08-18T15:42:37;9.32;;;6.03;;
44508;SDS011;30214;52.246;14.408;2022-08-18T15:45:14;9.82;;;6.22;;